createdAt,value
2019-02-16T16:08:32.773Z,20.32
2019-02-16T16:09:34.465Z,19.47
2019-02-16T16:10:34.242Z,18.47
2019-02-16T16:11:34.385Z,17.77
2019-02-16T16:12:34.571Z,16.83
2019-02-16T16:13:34.728Z,16.00
2019-02-16T16:14:34.884Z,15.32
2019-02-16T16:15:41.830Z,14.70
2019-02-16T16:16:37.285Z,14.28
2019-02-16T16:17:35.459Z,13.91
2019-02-16T16:18:35.613Z,13.69
2019-02-16T16:19:35.720Z,13.39
2019-02-16T16:20:35.985Z,13.15
2019-02-16T16:21:36.137Z,13.05
2019-02-16T16:22:36.235Z,12.72
2019-02-16T16:23:36.522Z,12.52
2019-02-16T16:24:36.647Z,12.37
2019-02-16T16:25:37.504Z,12.35
2019-02-16T16:26:38.007Z,12.31
2019-02-16T16:27:38.035Z,12.10
2019-02-16T16:28:37.357Z,11.91
2019-02-16T16:29:37.511Z,11.99
2019-02-16T16:30:37.697Z,11.98
2019-02-16T16:31:37.862Z,11.86
2019-02-16T16:32:38.091Z,11.80
2019-02-16T16:33:38.214Z,11.78
2019-02-16T16:34:38.304Z,11.70
2019-02-16T16:35:39.506Z,11.60
2019-02-16T16:36:38.673Z,11.27
2019-02-16T16:37:38.931Z,11.24
2019-02-16T16:38:39.026Z,10.94
2019-02-16T16:39:39.153Z,10.68
2019-02-16T16:40:39.961Z,10.52
2019-02-16T16:41:39.501Z,10.26
2019-02-16T16:42:39.767Z,10.07
2019-02-16T16:43:39.931Z,9.91
2019-02-16T16:44:40.104Z,9.81
2019-02-16T16:45:40.180Z,9.64
2019-02-16T16:46:40.490Z,9.42
2019-02-16T16:47:40.595Z,9.35
2019-02-16T16:48:40.714Z,9.23
2019-02-16T16:49:40.811Z,9.11
2019-02-16T16:50:41.060Z,8.99
2019-02-16T16:51:41.224Z,8.89
2019-02-16T16:52:41.375Z,8.77
2019-02-16T16:53:41.531Z,8.74
2019-02-16T16:54:41.617Z,8.61
2019-02-16T16:55:41.721Z,8.61
2019-02-16T16:56:42.005Z,8.53
2019-02-16T16:57:42.120Z,8.45
2019-02-16T16:58:42.222Z,8.53
2019-02-16T16:59:42.537Z,8.30
2019-02-16T17:00:42.674Z,8.23
2019-02-16T17:01:42.801Z,8.22
2019-02-16T17:02:42.903Z,8.16
2019-02-16T17:16:56.624Z,6.56
2019-02-16T17:17:57.854Z,6.52
2019-02-16T17:18:58.054Z,6.34
2019-02-16T17:19:58.246Z,6.12
2019-02-16T17:20:58.432Z,6.08
2019-02-16T17:21:58.634Z,5.99
2019-02-16T17:22:58.813Z,6.04
2019-02-16T17:23:58.998Z,5.91
2019-02-16T17:24:59.167Z,5.91
2019-02-16T17:25:59.340Z,5.90
2019-02-16T17:26:59.502Z,5.89
2019-02-16T17:27:59.667Z,5.93
2019-02-16T17:28:59.835Z,5.78
2019-02-16T17:29:59.972Z,5.68
2019-02-16T17:31:00.128Z,5.54
2019-02-16T17:32:00.289Z,5.39
2019-02-16T17:33:00.447Z,5.31
2019-02-16T17:34:00.607Z,5.17
2019-02-16T17:35:00.827Z,5.17
2019-02-16T17:36:01.009Z,5.09
2019-02-16T17:37:01.180Z,4.94
2019-02-16T17:38:01.356Z,4.89
2019-02-16T17:39:01.507Z,4.88
2019-02-16T17:40:01.657Z,4.78
2019-02-16T17:41:02.895Z,4.77
2019-02-16T17:42:02.025Z,4.75
2019-02-16T17:43:02.187Z,4.72
2019-02-16T17:44:02.356Z,4.58
2019-02-16T17:45:02.518Z,4.67
2019-02-16T17:46:02.676Z,4.58
2019-02-16T17:47:02.832Z,4.45
2019-02-16T17:48:04.012Z,4.32
2019-02-16T17:49:03.134Z,4.32
2019-02-16T17:50:03.281Z,4.34
2019-02-16T17:51:03.428Z,4.30
2019-02-16T17:52:03.608Z,4.29
2019-02-16T17:53:03.782Z,4.24
2019-02-16T17:54:08.399Z,4.16
2019-02-16T17:55:05.137Z,4.15
2019-02-16T17:56:04.329Z,3.93
2019-02-16T17:57:04.546Z,3.97
2019-02-16T17:58:04.652Z,4.02
2019-02-16T17:59:04.822Z,3.97
2019-02-16T18:30:26.498Z,2.82
2019-02-16T18:31:27.863Z,2.90
2019-02-16T18:32:31.448Z,2.89
2019-02-16T18:33:29.198Z,2.81
2019-02-16T18:34:28.381Z,2.77
2019-02-16T18:35:28.550Z,2.75
2019-02-16T18:36:28.765Z,2.64
2019-02-16T18:37:30.046Z,2.61
2019-02-16T18:38:29.900Z,2.53
2019-02-16T18:39:29.871Z,2.46
2019-02-16T18:40:29.701Z,2.36
2019-02-16T18:41:29.676Z,2.41
2019-02-16T18:42:29.855Z,2.28
2019-02-16T18:43:30.023Z,2.24
2019-02-16T18:44:30.247Z,2.24
2019-02-16T18:45:30.341Z,2.17
2019-02-16T18:46:30.590Z,2.28
2019-02-16T18:47:30.815Z,2.09
2019-02-16T18:48:31.108Z,2.14
2019-02-16T18:49:31.232Z,2.17
2019-02-16T18:50:31.850Z,2.07
2019-02-16T18:51:32.675Z,2.05
2019-02-16T18:52:31.745Z,2.07
2019-02-16T18:53:31.923Z,2.14
2019-02-16T18:54:32.170Z,2.09
2019-02-16T18:55:32.277Z,2.12
2019-02-16T18:56:32.568Z,2.10
2019-02-16T18:57:32.707Z,2.03
2019-02-16T18:58:32.876Z,2.14
2019-02-16T18:59:33.058Z,2.16
2019-02-16T20:00:32.614Z,0.29
2019-02-16T20:01:33.918Z,0.24
2019-02-16T20:02:34.104Z,0.14
2019-02-16T20:03:34.270Z,0.08
2019-02-16T20:04:34.416Z,-0.03
2019-02-16T20:05:34.589Z,0.00
2019-02-16T20:06:34.758Z,-0.01
2019-02-16T20:07:34.944Z,-0.03
2019-02-16T20:08:35.116Z,0.04
2019-02-16T20:09:35.297Z,0.08
2019-02-16T20:10:35.496Z,0.13
2019-02-16T20:11:35.664Z,0.24
2019-02-16T20:12:35.841Z,0.24
2019-02-16T20:13:36.001Z,0.26
2019-02-16T20:14:36.168Z,0.23
2019-02-16T20:15:36.318Z,0.29
2019-02-16T20:16:36.468Z,0.15
2019-02-16T20:17:36.607Z,0.15
2019-02-16T20:18:36.783Z,0.13
2019-02-16T20:19:36.941Z,0.03
2019-02-16T20:20:37.215Z,0.03
2019-02-16T20:21:37.276Z,0.08
2019-02-16T20:22:37.481Z,0.23
2019-02-16T20:23:37.675Z,0.26
2019-02-16T20:24:37.843Z,0.31
2019-02-16T20:25:38.005Z,0.36
2019-02-16T20:26:38.188Z,0.35
2019-02-16T20:27:38.346Z,0.35
2019-02-16T20:28:38.514Z,0.24
2019-02-16T20:29:38.661Z,0.21
2019-02-16T20:30:38.818Z,0.20
2019-02-16T20:31:39.017Z,0.08
2019-02-16T20:32:39.226Z,-0.01
2019-02-16T20:33:39.419Z,-0.07
2019-02-16T20:34:39.627Z,-0.21
2019-02-16T20:35:39.841Z,-0.26
2019-02-16T20:36:40.067Z,-0.28
2019-02-16T20:37:40.236Z,-0.29
2019-02-16T20:38:40.530Z,-0.26
2019-02-16T20:39:40.580Z,-0.31
2019-02-16T20:40:40.743Z,-0.40
2019-02-16T20:41:40.921Z,-0.51
2019-02-16T20:42:41.103Z,-0.49
2019-02-16T20:43:41.268Z,-0.58
2019-02-16T20:44:41.431Z,-0.51
2019-02-16T20:45:41.635Z,-0.55
2019-02-16T20:46:41.831Z,-0.47
2019-02-16T20:47:42.012Z,-0.58
2019-02-16T20:48:42.189Z,-0.52
2019-02-16T20:49:42.355Z,-0.44
2019-02-16T20:50:42.542Z,-0.39
2019-02-16T20:51:42.711Z,-0.26
2019-02-16T20:52:42.915Z,-0.29
2019-02-16T20:53:43.088Z,-0.37
2019-02-16T20:54:43.285Z,-0.36
2019-02-16T20:55:43.529Z,-0.42
2019-02-16T20:56:43.579Z,-0.46
2019-02-16T20:57:47.806Z,-0.60
2019-02-16T20:58:45.025Z,-0.57
2019-02-16T20:59:44.170Z,-0.70
2019-02-16T21:15:35.479Z,-0.91
2019-02-16T21:16:36.825Z,-0.97
2019-02-16T21:17:37.050Z,-1.01
2019-02-16T21:18:37.248Z,-1.10
2019-02-16T21:19:37.500Z,-1.25
2019-02-16T21:20:37.666Z,-1.20
2019-02-16T21:21:37.848Z,-1.34
2019-02-16T21:22:37.999Z,-1.41
2019-02-16T21:23:38.208Z,-1.45
2019-02-16T21:24:38.379Z,-1.43
2019-02-16T21:25:38.549Z,-1.46
2019-02-16T21:26:39.800Z,-1.41
2019-02-16T21:27:39.896Z,-1.48
2019-02-16T21:28:39.071Z,-1.52
2019-02-16T21:29:39.250Z,-1.35
2019-02-16T21:30:39.411Z,-1.35
2019-02-16T21:31:39.558Z,-1.23
2019-02-16T21:32:39.705Z,-1.19
2019-02-16T21:33:39.891Z,-1.33
2019-02-16T21:34:40.068Z,-1.30
2019-02-16T21:35:40.267Z,-1.25
2019-02-16T21:36:40.647Z,-1.15
2019-02-16T21:37:40.559Z,-1.15
2019-02-16T21:38:40.713Z,-0.98
2019-02-16T21:39:40.881Z,-0.98
2019-02-16T21:40:41.054Z,-1.01
2019-02-16T21:41:41.216Z,-1.05
2019-02-16T21:42:41.391Z,-1.07
2019-02-16T21:43:41.552Z,-0.97
2019-02-16T21:44:44.068Z,-1.02
2019-02-16T21:45:41.928Z,-0.94
2019-02-16T21:46:42.122Z,-0.83
2019-02-16T21:47:42.296Z,-0.92
2019-02-16T21:48:42.474Z,-0.97
2019-02-16T21:49:42.652Z,-1.02
2019-02-16T21:50:42.860Z,-1.15
2019-02-16T21:51:43.054Z,-1.04
2019-02-16T21:52:44.142Z,-1.12
2019-02-16T21:53:43.416Z,-1.25
2019-02-16T21:54:43.590Z,-1.31
2019-02-16T21:55:43.761Z,-1.35
2019-02-16T21:56:43.928Z,-1.48
2019-02-16T21:57:44.109Z,-1.35
2019-02-16T21:58:44.283Z,-1.38
2019-02-16T21:59:44.493Z,-1.31
